createdAt,value
2023-05-21T00:02:44.994Z,96.3267
2023-05-21T00:03:46.536Z,96.3259
2023-05-21T00:10:51.414Z,96.3394
2023-05-21T00:11:51.875Z,96.3290
2023-05-21T00:13:52.416Z,96.3264
2023-05-21T00:14:53.316Z,96.3242
2023-05-21T00:15:54.364Z,96.3266
2023-05-21T00:16:54.949Z,96.3399
2023-05-21T00:17:56.863Z,96.3557
2023-05-21T00:18:58.087Z,96.3659
2023-05-21T00:19:58.509Z,96.3459
2023-05-21T00:20:58.836Z,96.3162
2023-05-21T00:22:00.032Z,96.3187
2023-05-21T00:25:00.737Z,96.2930
2023-05-21T00:26:01.637Z,96.2967
2023-05-21T00:27:03.130Z,96.3000
2023-05-21T00:28:03.843Z,96.3045
2023-05-21T00:30:04.736Z,96.2991
2023-05-21T00:31:05.712Z,96.2577
2023-05-21T00:32:06.167Z,96.2380
2023-05-21T00:33:06.218Z,96.2312
2023-05-21T00:34:07.821Z,96.2167
2023-05-21T00:35:08.754Z,96.1885
2023-05-21T00:40:12.539Z,96.0977
2023-05-21T00:41:13.461Z,96.0877
2023-05-21T00:42:13.993Z,96.1112
2023-05-21T00:43:15.648Z,96.1172
2023-05-21T00:44:15.895Z,96.0993
2023-05-21T00:45:16.442Z,96.1072
2023-05-21T00:46:17.272Z,96.1617
2023-05-21T00:54:24.241Z,96.1348
2023-05-21T00:55:24.756Z,96.1156
2023-05-21T00:56:24.772Z,96.1100
2023-05-21T00:57:26.608Z,96.1444
2023-05-21T00:58:27.339Z,96.1406
2023-05-21T00:59:27.866Z,96.1333
2023-05-21T01:00:29.596Z,96.1176
2023-05-21T01:02:29.113Z,96.1336
2023-05-21T01:03:30.124Z,96.1226
2023-05-21T01:05:31.731Z,96.1109
2023-05-21T01:06:32.612Z,96.1086
2023-05-21T01:13:35.775Z,96.0447
2023-05-21T01:14:35.887Z,96.0462
2023-05-21T01:15:36.417Z,96.0469
2023-05-21T01:16:37.394Z,96.0472
2023-05-21T01:17:38.018Z,96.0493
2023-05-21T01:18:38.585Z,96.0508
2023-05-21T01:19:39.504Z,96.0450
2023-05-21T01:20:40.557Z,96.0414
2023-05-21T01:21:41.334Z,96.0437
2023-05-21T01:22:41.409Z,96.0443
2023-05-21T01:23:42.299Z,96.0416
2023-05-21T01:25:45.531Z,96.0455
2023-05-21T01:26:46.398Z,96.0427
2023-05-21T01:27:47.273Z,96.0373
2023-05-21T01:28:48.097Z,96.0269
2023-05-21T01:29:48.413Z,96.0273
2023-05-21T01:31:51.187Z,96.0224
2023-05-21T01:33:51.309Z,96.0055
2023-05-21T01:34:51.557Z,95.9979
2023-05-21T01:35:53.525Z,95.9784
2023-05-21T01:36:55.376Z,95.9758
2023-05-21T01:39:57.453Z,95.9558
2023-05-21T01:50:05.805Z,95.8624
2023-05-21T01:53:08.262Z,95.8337
2023-05-21T01:55:08.034Z,95.8198
2023-05-21T01:56:08.798Z,95.8013
2023-05-21T01:58:10.108Z,95.7950
2023-05-21T02:01:13.713Z,95.8035
2023-05-21T02:10:18.970Z,95.8290
2023-05-21T02:11:21.137Z,95.8166
2023-05-21T02:12:23.014Z,95.8032
2023-05-21T02:13:26.050Z,95.7971
2023-05-21T02:14:24.170Z,95.8005
2023-05-21T02:17:25.411Z,95.7967
2023-05-21T02:18:26.384Z,95.8057
2023-05-21T02:23:29.418Z,95.8025
2023-05-21T02:24:29.487Z,95.7978
2023-05-21T02:25:30.732Z,95.7830
2023-05-21T02:26:31.497Z,95.7876
2023-05-21T02:27:31.919Z,95.7654
2023-05-21T02:28:32.885Z,95.7509
2023-05-21T02:29:34.321Z,95.7546
2023-05-21T02:30:35.633Z,95.7565
2023-05-21T02:31:36.138Z,95.7657
2023-05-21T02:32:37.821Z,95.7666
2023-05-21T02:43:43.284Z,95.7789
2023-05-21T02:44:43.870Z,95.7788
2023-05-21T02:45:43.969Z,95.7871
2023-05-21T02:46:44.152Z,95.8013
2023-05-21T02:47:44.655Z,95.8157
2023-05-21T02:48:45.021Z,95.7962
2023-05-21T02:49:46.585Z,95.8065
2023-05-21T02:50:47.860Z,95.8035
2023-05-21T02:51:49.709Z,95.8307
2023-05-21T02:52:49.986Z,95.8559
2023-05-21T02:53:49.996Z,95.8476
2023-05-21T02:54:50.835Z,95.8607
2023-05-21T02:55:51.029Z,95.8634
2023-05-21T02:56:52.024Z,95.8796
2023-05-21T02:57:52.768Z,95.8809
2023-05-21T02:58:52.884Z,95.9063
2023-05-21T02:59:53.873Z,95.9253
2023-05-21T03:00:54.060Z,95.9495
2023-05-21T03:05:56.530Z,95.9770
2023-05-21T03:06:57.767Z,95.9964
2023-05-21T03:07:58.608Z,96.0160
2023-05-21T03:09:00.600Z,96.0102
2023-05-21T03:10:01.139Z,96.0198
2023-05-21T03:11:01.489Z,96.0392
2023-05-21T03:12:02.345Z,96.0597
2023-05-21T03:13:03.263Z,96.0671
2023-05-21T03:14:03.678Z,96.0587
2023-05-21T03:19:36.098Z,96.1267
2023-05-21T03:20:36.312Z,96.1400
2023-05-21T03:21:37.982Z,96.1474
2023-05-21T03:23:38.687Z,96.1981
2023-05-21T03:24:39.683Z,96.2031
2023-05-21T03:26:40.279Z,96.2291
2023-05-21T03:27:41.053Z,96.2115
2023-05-21T03:29:42.624Z,96.2496
2023-05-21T03:41:51.212Z,96.4186
2023-05-21T03:42:52.219Z,96.4227
2023-05-21T03:44:52.879Z,96.3845
2023-05-21T03:45:53.446Z,96.4313
2023-05-21T03:46:54.815Z,96.4571
2023-05-21T03:48:56.010Z,96.4831
2023-05-21T03:49:56.703Z,96.4944
2023-05-21T03:50:56.820Z,96.4764
2023-05-21T03:51:58.374Z,96.4692
2023-05-21T03:53:58.313Z,96.5292
2023-05-21T03:54:58.513Z,96.5629
2023-05-21T03:55:58.775Z,96.5505
2023-05-21T03:57:00.003Z,96.5352
2023-05-21T03:58:00.499Z,96.5533
2023-05-21T03:59:01.309Z,96.5625
2023-05-21T04:00:02.944Z,96.5852
2023-05-21T04:01:04.124Z,96.5903
2023-05-21T04:02:04.966Z,96.5893
2023-05-21T04:03:06.428Z,96.5537
2023-05-21T04:04:07.372Z,96.5641
2023-05-21T04:05:06.619Z,96.5746
2023-05-21T04:06:08.529Z,96.5232
2023-05-21T04:07:10.049Z,96.5277
2023-05-21T04:08:10.593Z,96.5179
2023-05-21T04:09:11.359Z,96.5492
2023-05-21T04:14:14.417Z,96.4895
2023-05-21T04:17:15.086Z,96.4900
2023-05-21T04:18:16.287Z,96.4787
2023-05-21T04:20:16.291Z,96.4749
2023-05-21T04:21:17.260Z,96.4928
2023-05-21T04:23:18.020Z,96.4524
2023-05-21T04:24:18.387Z,96.4708
2023-05-21T04:25:18.601Z,96.4751
2023-05-21T04:26:20.733Z,96.4900
2023-05-21T04:29:24.478Z,96.4613
2023-05-21T04:30:25.901Z,96.4459
2023-05-21T04:35:28.356Z,96.3266
2023-05-21T04:37:29.850Z,96.2531
2023-05-21T04:38:30.215Z,96.2252
2023-05-21T04:43:34.316Z,96.0442
2023-05-21T04:45:33.868Z,95.9243
2023-05-21T04:46:35.424Z,95.8371
2023-05-21T04:47:36.271Z,95.7530
2023-05-21T04:56:40.458Z,94.7194
2023-05-21T04:57:41.653Z,94.5568
2023-05-21T04:58:42.277Z,94.4075
2023-05-21T04:59:42.849Z,94.2730
2023-05-21T05:00:43.988Z,94.1507
2023-05-21T05:01:44.436Z,94.0329
2023-05-21T05:03:45.817Z,93.7312
2023-05-21T05:04:46.274Z,93.5097
2023-05-21T05:05:47.042Z,93.2857
2023-05-21T05:07:49.445Z,93.0382
2023-05-21T05:09:49.996Z,92.6274
2023-05-21T05:10:50.765Z,92.4750
2023-05-21T05:11:50.948Z,92.3682
2023-05-21T05:12:52.079Z,92.1316
2023-05-21T05:19:56.326Z,92.7331
2023-05-21T05:20:58.318Z,92.7055
2023-05-21T05:21:59.272Z,92.5651
2023-05-21T05:22:59.750Z,92.1619
2023-05-21T05:24:01.049Z,92.1106
2023-05-21T05:25:01.751Z,92.1306
2023-05-21T05:27:02.044Z,92.2522
2023-05-21T05:28:03.739Z,92.2109
2023-05-21T05:30:04.256Z,92.0368
2023-05-21T05:31:05.116Z,91.9000
2023-05-21T05:32:06.210Z,91.7504
2023-05-21T05:33:08.317Z,91.3602
2023-05-21T05:34:08.511Z,91.0507
2023-05-21T05:35:08.779Z,90.8568
2023-05-21T05:36:09.373Z,90.9625
2023-05-21T05:37:11.006Z,90.9736
2023-05-21T05:40:13.447Z,90.2964
2023-05-21T05:41:14.101Z,90.0826
2023-05-21T05:42:15.328Z,90.2450
2023-05-21T05:43:16.849Z,90.2965
2023-05-21T05:48:20.907Z,91.2237
2023-05-21T05:49:22.222Z,91.3986
2023-05-21T05:50:22.489Z,91.0621
2023-05-21T05:51:23.181Z,91.0325
2023-05-21T05:52:23.493Z,90.8330
2023-05-21T05:53:24.682Z,90.4665
2023-05-21T05:54:25.135Z,90.2290
2023-05-21T05:55:25.273Z,90.0257
2023-05-21T05:56:25.807Z,90.1332
2023-05-21T05:57:26.067Z,90.4740
2023-05-21T05:58:27.247Z,90.6361
2023-05-21T05:59:27.508Z,90.6099
2023-05-21T06:00:28.841Z,90.3365
2023-05-21T06:01:29.832Z,89.7074
2023-05-21T06:02:30.303Z,88.8227
2023-05-21T06:03:30.539Z,88.4855
2023-05-21T06:07:33.346Z,88.9073
2023-05-21T06:08:36.640Z,89.2779
2023-05-21T06:09:34.796Z,89.5128
2023-05-21T06:10:35.706Z,89.4452
2023-05-21T06:11:35.751Z,89.4681
2023-05-21T06:12:36.891Z,89.3432
2023-05-21T06:13:38.552Z,88.9162
2023-05-21T06:14:38.745Z,88.7212
2023-05-21T06:16:42.403Z,88.7580
2023-05-21T06:21:43.878Z,88.1280
2023-05-21T06:22:43.981Z,87.5422
2023-05-21T06:27:47.508Z,85.9899
2023-05-21T06:28:48.757Z,84.0669
2023-05-21T06:29:48.962Z,82.6749
2023-05-21T06:30:50.488Z,81.6568
2023-05-21T06:31:52.211Z,81.7476
2023-05-21T06:32:52.855Z,82.7881
2023-05-21T06:33:53.496Z,82.3145
2023-05-21T06:34:54.909Z,82.4223
2023-05-21T06:37:57.198Z,84.2372
2023-05-21T06:38:57.301Z,83.8462
2023-05-21T06:39:57.400Z,82.8470
2023-05-21T06:40:58.527Z,82.4803
2023-05-21T06:41:58.680Z,81.6071
2023-05-21T06:43:00.107Z,81.6293
2023-05-21T06:44:01.041Z,83.0006
2023-05-21T06:49:05.261Z,82.6302
2023-05-21T06:51:04.983Z,79.9975
2023-05-21T06:52:06.014Z,80.5771
2023-05-21T06:53:06.882Z,80.6177
2023-05-21T06:54:08.030Z,80.7919
2023-05-21T06:55:08.662Z,81.0470
2023-05-21T06:56:09.245Z,80.7564
2023-05-21T06:57:10.609Z,80.7338
2023-05-21T06:58:12.443Z,80.5011
2023-05-21T07:00:13.839Z,79.8949
2023-05-21T07:01:14.899Z,80.0425
2023-05-21T07:09:19.379Z,79.8183
2023-05-21T07:10:20.188Z,79.9472
2023-05-21T07:11:21.269Z,79.4335
2023-05-21T07:12:22.095Z,78.6140
2023-05-21T07:13:22.728Z,78.2129
2023-05-21T07:15:23.199Z,78.3494
2023-05-21T07:16:23.841Z,77.2564
2023-05-21T07:17:24.117Z,75.0311
2023-05-21T07:18:25.551Z,74.4382
2023-05-21T07:19:26.311Z,74.0712
2023-05-21T07:20:27.422Z,76.7317
2023-05-21T07:21:28.576Z,77.4728
2023-05-21T07:22:30.249Z,77.7922
2023-05-21T07:23:30.384Z,76.6066
2023-05-21T07:24:31.501Z,75.8864
2023-05-21T07:27:33.521Z,75.2236
2023-05-21T07:28:33.903Z,76.9563
2023-05-21T07:29:34.984Z,77.1082
2023-05-21T07:30:35.880Z,77.1040
2023-05-21T07:31:35.982Z,76.3808
2023-05-21T07:32:36.263Z,74.6261
2023-05-21T07:33:37.352Z,72.7013
2023-05-21T07:34:38.254Z,73.2179
2023-05-21T07:35:38.656Z,71.2274
2023-05-21T07:36:40.482Z,72.9935
2023-05-21T07:37:42.076Z,73.3368
2023-05-21T07:38:42.544Z,73.3767
2023-05-21T07:39:43.506Z,73.5122
2023-05-21T07:40:43.941Z,72.6911
2023-05-21T07:41:44.669Z,73.4544
2023-05-21T07:42:44.708Z,71.6410
2023-05-21T07:45:44.793Z,72.7639
2023-05-21T07:46:44.974Z,73.1632
2023-05-21T07:47:45.333Z,72.5063
2023-05-21T07:48:46.175Z,69.8423
2023-05-21T07:50:48.823Z,69.8279
2023-05-21T07:51:49.700Z,73.2236
2023-05-21T07:56:53.401Z,70.1402
2023-05-21T07:57:53.780Z,70.7404
2023-05-21T07:59:55.535Z,71.9935
2023-05-21T08:00:55.997Z,70.4985
2023-05-21T08:01:56.828Z,70.9208
2023-05-21T08:02:58.351Z,70.2941
2023-05-21T08:04:59.730Z,71.6086
2023-05-21T08:05:59.975Z,71.8180
2023-05-21T08:07:00.697Z,71.1848
2023-05-21T08:08:01.519Z,72.0457
2023-05-21T08:09:03.170Z,72.5395
2023-05-21T08:10:04.020Z,72.6153
2023-05-21T08:11:04.388Z,71.5757
2023-05-21T08:12:05.862Z,71.3799
2023-05-21T08:13:06.777Z,71.5501
2023-05-21T08:14:07.533Z,70.4518
2023-05-21T08:15:09.638Z,68.1046
2023-05-21T08:16:10.241Z,67.5209
2023-05-21T08:23:14.100Z,67.2695
2023-05-21T08:26:19.632Z,68.5768
2023-05-21T08:27:21.527Z,67.0229
2023-05-21T08:36:28.678Z,65.4207
2023-05-21T08:37:28.408Z,66.2346
2023-05-21T08:38:30.540Z,65.6961
2023-05-21T08:39:30.077Z,63.0204
2023-05-21T08:40:30.145Z,58.9933
2023-05-21T08:41:31.167Z,62.4081
2023-05-21T08:42:37.005Z,63.4202
2023-05-21T08:43:33.759Z,64.7342
2023-05-21T08:47:46.811Z,62.7819
2023-05-21T08:54:50.289Z,66.8300
2023-05-21T08:55:51.771Z,65.0958
2023-05-21T08:56:53.571Z,64.4779
2023-05-21T09:02:21.736Z,66.5528
2023-05-21T09:04:23.517Z,65.6352
2023-05-21T09:06:24.644Z,66.7267
2023-05-21T09:07:25.056Z,63.4444
2023-05-21T09:08:26.251Z,61.2462
2023-05-21T09:09:28.360Z,61.1243
2023-05-21T09:11:29.058Z,61.3790
2023-05-21T09:17:30.559Z,60.5627
2023-05-21T09:18:31.636Z,57.0608
2023-05-21T09:19:32.226Z,56.6202
2023-05-21T09:20:32.119Z,57.7494
2023-05-21T09:21:32.986Z,57.2211
2023-05-21T09:22:34.078Z,57.6832
2023-05-21T09:23:34.925Z,56.9631
2023-05-21T09:26:34.692Z,59.7011
2023-05-21T09:30:30.058Z,60.6078
2023-05-21T09:32:13.485Z,61.3325
2023-05-21T09:33:13.602Z,58.4862
2023-05-21T09:34:14.300Z,57.6121
2023-05-21T09:35:15.098Z,55.9141
2023-05-21T09:36:15.395Z,56.0094
2023-05-21T09:37:26.551Z,57.6626
2023-05-21T09:38:18.083Z,58.0013
2023-05-21T09:39:18.173Z,56.7721
2023-05-21T09:41:22.324Z,57.2127
2023-05-21T09:46:24.967Z,58.1674
2023-05-21T09:47:25.753Z,56.4044
2023-05-21T09:48:25.606Z,56.3355
2023-05-21T09:49:26.335Z,59.2268
2023-05-21T09:56:37.770Z,57.9710
2023-05-21T09:57:38.198Z,59.5711
2023-05-21T09:58:39.928Z,59.1407
2023-05-21T09:59:40.926Z,60.8386
2023-05-21T10:01:40.977Z,60.4566
2023-05-21T10:02:42.252Z,59.9938
2023-05-21T10:03:42.436Z,59.2233
2023-05-21T10:04:42.756Z,59.2609
2023-05-21T10:05:43.582Z,57.7107
2023-05-21T10:06:44.795Z,56.1465
2023-05-21T10:07:46.474Z,55.9609
2023-05-21T10:08:47.151Z,56.9209
2023-05-21T10:09:48.014Z,57.7962
2023-05-21T10:14:52.152Z,57.9089
2023-05-21T10:17:54.644Z,57.7432
2023-05-21T10:18:54.869Z,59.5005
2023-05-21T10:19:56.190Z,58.8499
2023-05-21T10:20:57.398Z,57.6321
2023-05-21T10:21:57.013Z,57.7720
2023-05-21T10:22:57.963Z,58.6998
2023-05-21T10:28:01.176Z,58.3535
2023-05-21T10:29:01.662Z,55.6207
2023-05-21T10:31:14.057Z,59.0238
2023-05-21T10:32:15.167Z,57.8957
2023-05-21T10:33:16.614Z,54.4518
2023-05-21T10:34:16.818Z,56.2540
2023-05-21T10:35:17.898Z,57.1326
2023-05-21T10:36:18.655Z,57.2448
2023-05-21T10:37:19.545Z,59.6374
2023-05-21T10:38:20.633Z,57.1781
2023-05-21T10:40:27.303Z,55.4101
2023-05-21T10:42:33.256Z,55.7257
2023-05-21T10:43:33.876Z,54.7445
2023-05-21T10:44:35.338Z,55.6537
2023-05-21T10:45:36.209Z,55.8747
2023-05-21T11:00:22.499Z,57.9154
2023-05-21T11:01:22.707Z,56.9711
2023-05-21T11:02:22.873Z,55.3723
2023-05-21T11:03:24.573Z,54.7761
2023-05-21T11:04:24.697Z,55.5397
2023-05-21T11:05:32.736Z,57.3912
2023-05-21T11:06:27.647Z,56.9643
2023-05-21T11:15:52.769Z,54.3454
2023-05-21T11:17:53.848Z,54.1664
2023-05-21T11:18:54.668Z,54.8196
2023-05-21T11:21:57.541Z,55.0556
2023-05-21T11:22:58.546Z,53.9509
2023-05-21T11:24:58.650Z,54.0097
2023-05-21T11:25:59.778Z,55.2782
2023-05-21T11:28:01.231Z,52.8539
2023-05-21T11:29:02.596Z,53.0733
2023-05-21T11:30:03.258Z,53.0068
2023-05-21T11:31:04.027Z,53.0100
2023-05-21T11:32:04.956Z,53.5125
2023-05-21T11:33:05.998Z,52.8237
2023-05-21T11:34:06.850Z,51.0390
2023-05-21T11:35:07.607Z,48.4249
2023-05-21T11:41:13.279Z,48.3867
2023-05-21T11:42:13.677Z,47.3931
2023-05-21T11:43:14.329Z,45.3311
2023-05-21T11:44:14.660Z,44.6319
2023-05-21T11:45:15.521Z,44.3685
2023-05-21T11:46:16.053Z,42.7169
2023-05-21T11:47:17.768Z,48.6792
2023-05-21T11:48:17.918Z,47.5888
2023-05-21T11:50:18.959Z,49.2282
2023-05-21T11:51:19.065Z,50.8234
2023-05-21T11:52:19.599Z,49.9561
2023-05-21T11:53:20.934Z,47.3812
2023-05-21T11:54:21.019Z,46.7777
2023-05-21T11:55:21.625Z,47.5909
2023-05-21T11:56:21.992Z,45.9233
2023-05-21T11:57:22.220Z,46.5406
2023-05-21T11:58:23.549Z,43.1097
2023-05-21T12:01:24.548Z,46.8437
2023-05-21T12:04:27.922Z,43.6802
2023-05-21T12:05:28.313Z,45.1111
2023-05-21T12:10:30.323Z,44.9345
2023-05-21T12:11:30.492Z,39.8754
2023-05-21T12:12:38.877Z,41.7158
2023-05-21T12:13:32.268Z,45.5228
2023-05-21T12:14:32.081Z,46.1621
2023-05-21T12:15:32.655Z,45.9112
2023-05-21T12:16:33.805Z,44.8436
2023-05-21T12:17:34.986Z,46.3151
2023-05-21T12:19:35.888Z,47.7501
2023-05-21T12:20:37.268Z,45.0756
2023-05-21T12:21:37.615Z,45.8748
2023-05-21T12:23:39.611Z,45.2621
2023-05-21T12:24:40.813Z,42.7931
2023-05-21T12:28:43.417Z,44.5312
2023-05-21T12:29:44.498Z,47.3410
2023-05-21T12:32:45.615Z,48.2212
2023-05-21T12:33:45.702Z,47.2123
2023-05-21T12:34:45.874Z,45.5918
2023-05-21T12:35:47.841Z,47.2436
2023-05-21T12:38:49.706Z,46.3983
2023-05-21T12:39:50.718Z,46.0751
2023-05-21T12:40:51.394Z,48.1116
2023-05-21T12:41:51.205Z,48.7538
2023-05-21T12:47:54.193Z,47.5200
2023-05-21T12:48:54.988Z,47.6477
2023-05-21T12:50:06.619Z,50.9242
2023-05-21T12:51:00.498Z,50.9144
2023-05-21T12:52:02.914Z,49.9175
2023-05-21T12:54:04.884Z,47.7820
2023-05-21T12:55:07.528Z,48.7898
2023-05-21T12:56:06.011Z,51.1796
2023-05-21T12:57:06.795Z,49.1928
2023-05-21T12:58:06.830Z,50.6296
2023-05-21T12:59:07.521Z,50.4654
2023-05-21T13:00:08.890Z,50.8382
2023-05-21T13:01:09.908Z,50.9434
2023-05-21T13:02:10.718Z,51.4935
2023-05-21T13:13:21.473Z,50.9202
2023-05-21T13:15:20.767Z,49.9512
2023-05-21T13:16:21.680Z,48.1359
2023-05-21T13:21:23.812Z,50.6733
2023-05-21T13:22:23.797Z,50.9829
2023-05-21T13:23:24.946Z,53.2048
2023-05-21T13:26:27.042Z,49.8538
2023-05-21T13:27:27.975Z,50.7529
2023-05-21T13:29:30.070Z,51.0040
2023-05-21T13:31:31.086Z,51.9810
2023-05-21T13:32:31.879Z,48.7389
2023-05-21T13:33:33.322Z,51.0788
2023-05-21T13:35:33.653Z,47.1456
2023-05-21T13:36:34.878Z,48.4642
2023-05-21T13:38:35.413Z,49.5111
2023-05-21T13:39:35.589Z,50.3305
2023-05-21T13:40:38.864Z,47.2106
2023-05-21T13:41:38.155Z,46.1438
2023-05-21T13:50:44.838Z,46.8942
2023-05-21T13:51:45.464Z,45.8291
2023-05-21T13:52:46.982Z,47.5641
2023-05-21T13:53:48.498Z,46.5505
2023-05-21T13:54:48.644Z,46.6346
2023-05-21T13:55:49.112Z,45.7597
2023-05-21T13:56:50.037Z,45.1559
2023-05-21T13:57:51.498Z,47.0518
2023-05-21T13:58:51.871Z,48.4665
2023-05-21T13:59:52.385Z,46.0790
2023-05-21T14:03:53.727Z,46.3748
2023-05-21T14:05:57.570Z,43.1444
2023-05-21T14:06:57.822Z,43.8654
2023-05-21T14:07:57.376Z,50.1108
2023-05-21T14:08:58.394Z,47.5306
2023-05-21T14:09:58.864Z,44.7295
2023-05-21T14:12:01.666Z,44.3081
2023-05-21T14:13:18.269Z,44.0901
2023-05-21T14:14:06.056Z,40.8782
2023-05-21T14:15:07.066Z,40.7187
2023-05-21T14:16:07.298Z,42.8219
2023-05-21T14:17:09.033Z,42.6296
2023-05-21T14:18:10.908Z,38.6693
2023-05-21T14:25:14.978Z,35.2810
2023-05-21T14:26:15.996Z,34.5997
2023-05-21T14:27:17.108Z,36.4865
2023-05-21T14:28:18.312Z,38.8931
2023-05-21T14:31:19.792Z,40.3278
2023-05-21T14:32:20.184Z,39.9006
2023-05-21T14:33:22.383Z,40.9686
2023-05-21T14:34:24.089Z,38.9884
2023-05-21T14:35:25.566Z,38.9368
2023-05-21T14:37:26.579Z,41.0064
2023-05-21T14:38:27.523Z,42.0943
2023-05-21T14:43:29.770Z,41.9762
2023-05-21T14:45:31.020Z,38.5614
2023-05-21T14:46:32.468Z,39.2475
2023-05-21T14:54:37.179Z,53.8519
2023-05-21T14:55:39.084Z,46.0178
2023-05-21T14:57:39.480Z,51.0365
2023-05-21T14:58:39.610Z,42.1708
2023-05-21T14:59:40.216Z,46.5243
2023-05-21T15:00:41.262Z,44.1728
2023-05-21T15:02:40.354Z,58.8318
2023-05-21T15:03:41.169Z,41.3747
2023-05-21T15:04:42.397Z,39.2586
2023-05-21T15:05:43.181Z,44.4248
2023-05-21T15:06:43.281Z,53.6654
2023-05-21T15:09:47.360Z,58.8878
2023-05-21T15:10:48.670Z,55.0161
2023-05-21T15:11:49.053Z,48.8979
2023-05-21T15:12:49.148Z,56.8311
2023-05-21T15:13:49.523Z,55.0128
2023-05-21T15:14:50.288Z,51.9040
2023-05-21T15:15:50.339Z,54.3292
2023-05-21T15:16:50.936Z,52.6531
2023-05-21T15:19:52.121Z,46.4086
2023-05-21T15:23:52.463Z,40.8706
2023-05-21T15:24:53.366Z,40.2077
2023-05-21T15:25:53.466Z,48.1278
2023-05-21T15:26:54.262Z,44.1368
2023-05-21T15:27:54.330Z,43.5139
2023-05-21T15:42:37.745Z,33.6237
2023-05-21T15:43:38.360Z,33.6955
2023-05-21T15:44:40.164Z,35.8331
2023-05-21T15:45:41.768Z,37.0299
2023-05-21T15:48:46.330Z,39.3781
2023-05-21T15:55:32.912Z,35.4163
2023-05-21T15:57:34.045Z,37.7012
2023-05-21T15:59:46.363Z,36.9559
2023-05-21T16:00:46.874Z,37.4800
2023-05-21T16:01:48.562Z,37.0278
2023-05-21T16:02:49.516Z,37.5540
2023-05-21T16:03:50.464Z,37.8477
2023-05-21T16:04:51.420Z,37.6165
2023-05-21T16:05:51.943Z,37.4035
2023-05-21T16:06:52.726Z,34.9935
2023-05-21T16:07:53.416Z,34.2719
2023-05-21T16:08:53.452Z,37.4818
2023-05-21T16:09:54.910Z,36.9238
2023-05-21T16:10:55.372Z,37.9289
2023-05-21T16:14:59.546Z,37.8675
2023-05-21T16:16:00.835Z,40.9235
2023-05-21T16:17:01.358Z,38.7218
2023-05-21T16:20:03.204Z,40.2311
2023-05-21T16:21:05.011Z,40.0150
2023-05-21T16:22:05.389Z,38.1105
2023-05-21T16:23:05.772Z,37.6756
2023-05-21T16:24:06.071Z,40.6058
2023-05-21T16:27:06.954Z,41.3109
2023-05-21T16:33:11.605Z,46.4681
2023-05-21T16:34:12.036Z,46.6580
2023-05-21T16:35:13.474Z,50.2408
2023-05-21T16:36:16.308Z,49.3752
2023-05-21T16:37:15.740Z,53.3009
2023-05-21T16:38:16.673Z,45.7772
2023-05-21T16:39:17.229Z,51.6015
2023-05-21T16:40:18.247Z,46.8146
2023-05-21T16:41:19.750Z,50.0028
2023-05-21T16:42:20.244Z,47.2309
2023-05-21T16:43:21.346Z,44.2224
2023-05-21T16:44:22.911Z,45.7486
2023-05-21T16:45:23.386Z,45.5311
2023-05-21T16:46:24.582Z,45.6765
2023-05-21T16:48:25.367Z,46.4712
2023-05-21T16:51:27.967Z,38.7175
2023-05-21T16:52:29.350Z,41.4067
2023-05-21T16:53:30.471Z,41.0330
2023-05-21T16:59:34.275Z,45.6515
2023-05-21T17:00:34.372Z,45.2406
2023-05-21T17:01:35.447Z,46.8661
2023-05-21T17:04:36.476Z,45.4943
2023-05-21T17:05:37.260Z,44.3084
2023-05-21T17:06:39.150Z,43.6371
2023-05-21T17:07:40.001Z,43.0368
2023-05-21T17:08:40.288Z,43.6057
2023-05-21T17:09:41.285Z,49.8638
2023-05-21T17:10:43.051Z,52.7926
2023-05-21T17:11:44.170Z,57.9399
2023-05-21T17:13:45.415Z,53.1506
2023-05-21T17:14:45.670Z,56.9900
2023-05-21T17:16:45.993Z,61.6684
2023-05-21T17:17:47.112Z,62.1182
2023-05-21T17:18:47.691Z,62.7533
2023-05-21T17:19:48.103Z,60.7643
2023-05-21T17:20:48.622Z,58.3181
2023-05-21T17:21:48.916Z,61.2507
2023-05-21T17:22:49.780Z,58.0450
2023-05-21T17:23:50.368Z,62.7640
2023-05-21T17:24:50.878Z,61.0004
2023-05-21T17:25:51.105Z,60.1511
2023-05-21T17:26:51.958Z,60.8484
2023-05-21T17:27:52.646Z,59.0875
2023-05-21T17:28:53.172Z,60.3575
2023-05-21T17:29:54.164Z,59.8639
2023-05-21T17:30:55.786Z,61.7396
2023-05-21T17:31:56.928Z,52.8776
2023-05-21T17:32:57.719Z,53.3778
2023-05-21T17:33:59.152Z,60.1479
2023-05-21T17:36:00.417Z,59.4699
2023-05-21T17:37:00.844Z,61.9754
2023-05-21T17:38:01.513Z,62.8809
2023-05-21T17:39:01.693Z,63.8550
2023-05-21T17:40:03.152Z,63.2441
2023-05-21T17:46:07.538Z,64.6970
2023-05-21T17:47:08.925Z,63.6884
2023-05-21T17:48:09.048Z,62.2855
2023-05-21T17:49:09.876Z,64.9752
2023-05-21T17:50:11.098Z,66.5756
2023-05-21T17:51:11.372Z,67.1073
2023-05-21T17:52:11.409Z,67.1534
2023-05-21T17:53:12.515Z,66.6323
2023-05-21T17:54:13.751Z,68.9135
2023-05-21T17:55:14.924Z,65.3384
2023-05-21T17:56:15.949Z,64.9417
2023-05-21T17:59:16.257Z,69.6048
2023-05-21T18:00:17.121Z,69.3846
2023-05-21T18:01:17.115Z,68.9582
2023-05-21T18:02:19.441Z,69.3474
2023-05-21T18:03:20.986Z,70.7912
2023-05-21T18:04:21.281Z,66.8069
2023-05-21T18:09:22.871Z,71.4066
2023-05-21T18:10:24.316Z,71.9240
2023-05-21T18:11:24.436Z,72.3429
2023-05-21T18:13:27.392Z,71.0721
2023-05-21T18:18:29.007Z,71.3197
2023-05-21T18:19:30.876Z,70.6676
2023-05-21T18:20:30.661Z,71.0356
2023-05-21T18:23:32.191Z,69.4135
2023-05-21T18:24:32.766Z,71.2266
2023-05-21T18:25:35.517Z,72.2726
2023-05-21T18:26:36.474Z,72.8681
2023-05-21T18:27:36.886Z,71.1995
2023-05-21T18:28:37.356Z,71.5802
2023-05-21T18:30:39.009Z,71.9450
2023-05-21T18:31:38.981Z,71.9375
2023-05-21T18:35:40.680Z,70.0819
2023-05-21T18:36:41.596Z,68.9640
2023-05-21T18:37:42.506Z,70.9912
2023-05-21T18:40:44.816Z,71.8815
2023-05-21T18:41:45.416Z,71.2205
2023-05-21T18:43:47.363Z,72.9772
2023-05-21T18:44:48.415Z,72.9389
2023-05-21T18:45:49.298Z,73.7999
2023-05-21T18:46:49.824Z,69.5826
2023-05-21T18:47:51.080Z,70.4042
2023-05-21T18:48:51.642Z,70.9368
2023-05-21T18:50:52.876Z,70.1252
2023-05-21T18:51:53.113Z,68.2366
2023-05-21T18:52:55.027Z,71.6936
2023-05-21T18:53:56.028Z,71.0910
2023-05-21T18:54:56.312Z,69.9530
2023-05-21T18:55:56.455Z,70.7087
2023-05-21T19:05:02.698Z,70.5921
2023-05-21T19:06:03.664Z,70.5317
2023-05-21T19:07:03.842Z,71.1939
2023-05-21T19:08:05.470Z,70.4037
2023-05-21T19:09:06.424Z,67.7027
2023-05-21T19:11:07.527Z,70.2035
2023-05-21T19:12:08.130Z,69.1907
2023-05-21T19:13:08.414Z,69.3196
2023-05-21T19:14:09.616Z,71.4014
2023-05-21T19:15:11.408Z,70.3508
2023-05-21T19:17:11.549Z,69.9067
2023-05-21T19:18:12.108Z,70.0320
2023-05-21T19:19:12.739Z,70.2779
2023-05-21T19:20:13.810Z,71.8886
2023-05-21T19:21:14.924Z,71.8293
2023-05-21T19:22:15.510Z,72.1991
2023-05-21T19:23:15.734Z,72.6129
2023-05-21T19:24:16.018Z,72.5972
2023-05-21T19:25:16.302Z,72.8782
2023-05-21T19:26:16.998Z,73.9603
2023-05-21T19:27:18.272Z,73.0328
2023-05-21T19:30:19.225Z,70.5202
2023-05-21T19:31:19.362Z,73.8409
2023-05-21T19:32:20.695Z,72.7958
2023-05-21T19:37:23.178Z,72.0934
2023-05-21T19:40:25.456Z,71.0841
2023-05-21T19:41:25.857Z,72.3122
2023-05-21T19:42:26.944Z,72.7522
2023-05-21T19:43:28.442Z,75.1334
2023-05-21T19:44:28.484Z,74.1740
2023-05-21T19:45:29.365Z,74.5092
2023-05-21T19:46:30.038Z,74.3744
2023-05-21T19:56:34.296Z,76.2752
2023-05-21T19:57:34.578Z,76.6513
2023-05-21T20:02:38.714Z,73.8897
2023-05-21T20:03:39.116Z,74.4593
2023-05-21T20:08:41.991Z,76.1387
2023-05-21T20:09:42.813Z,76.6939
2023-05-21T20:11:44.327Z,77.9619
2023-05-21T20:12:44.439Z,77.4186
2023-05-21T20:13:45.949Z,77.8286
2023-05-21T20:14:47.010Z,77.5583
2023-05-21T20:15:47.368Z,76.7037
2023-05-21T20:16:49.184Z,78.8315
2023-05-21T20:17:50.046Z,78.3333
2023-05-21T20:18:50.934Z,76.7701
2023-05-21T20:19:52.388Z,78.4988
2023-05-21T20:20:52.738Z,78.6632
2023-05-21T20:21:52.854Z,77.9850
2023-05-21T20:33:00.262Z,78.6662
2023-05-21T20:34:01.501Z,79.6037